Time;durP1;ratioP1;P1;durP2;ratioP2;P2;SDS_P1;SDS_P2;PMS_P1;PMS_P2;Temp;Humidity;BMP_temperature;BMP_pressure;BME280_temperature;BME280_humidity;BME280_pressure;Samples;Min_cycle;Max_cycle;Signal;HPM_P1;HPM_P2
2023/07/01 00:04:00;;;;;;;;;;;22.50;52.10;;;21.49;52.34;100555.94;12248111;19;19915;-88
2023/07/01 00:08:02;;;;;;;;;;;22.40;52.10;;;21.58;52.69;100564.81;12246327;19;20252;-88
2023/07/01 00:12:04;;;;;;;;;;;22.40;52.20;;;21.45;52.56;100549.31;12248082;19;20356;-88
2023/07/01 00:16:06;;;;;;;;;;;22.40;52.10;;;21.36;52.24;100544.91;12244586;19;20341;-88
2023/07/01 00:20:09;;;;;;;;;;;22.30;52.10;;;21.50;52.46;100580.72;12247199;19;19952;-88
2023/07/01 00:24:10;;;;;;;;;;;22.30;52.20;;;21.38;52.53;100566.88;12246398;19;19926;-89
2023/07/01 00:28:12;;;;;;;;;;;22.20;52.00;;;21.21;52.40;100542.84;12248473;19;20390;-88
2023/07/01 00:32:14;;;;;;;;;;;22.10;52.00;;;21.14;52.69;100546.28;12247228;19;19962;-88
2023/07/01 00:36:15;;;;;;;;;;;22.10;52.00;;;21.25;52.41;100563.78;12247125;19;19946;-89
2023/07/01 00:40:16;;;;;;;;;;;22.00;52.10;;;21.18;52.51;100548.47;12247773;19;19923;-88
2023/07/01 00:44:18;;;;;;;;;;;22.00;52.30;;;21.25;52.39;100563.78;12243916;19;19914;-88
2023/07/01 00:48:24;;;;;;;;;;;22.00;52.30;;;21.25;52.46;100556.63;12244876;19;19924;-88
2023/07/01 00:52:25;;;;;;;;;;;22.00;52.40;;;20.99;52.61;100506.22;12246883;19;19919;-88
2023/07/01 00:56:27;;;;;;;;;;;22.00;52.50;;;21.21;52.78;100536.72;12246937;19;19911;-88
2023/07/01 01:00:28;;;;;;;;;;;22.00;52.50;;;21.00;52.80;100506.06;12247005;19;19911;-88
2023/07/01 01:05:01;;;;;;;;;;;22.00;52.50;;;21.16;53.09;100531.88;12236935;19;19915;-88
2023/07/01 01:09:15;;;;;;;;;;;22.00;52.50;;;21.03;52.79;100509.41;12244691;19;19922;-88
2023/07/01 01:13:18;;;;;;;;;;;22.00;52.50;;;21.18;52.54;100531.72;12253498;19;19919;-88
2023/07/01 01:17:21;;;;;;;;;;;22.00;52.60;;;21.15;53.00;100521.41;12258203;19;20139;-88
2023/07/01 01:21:23;;;;;;;;;;;22.00;53.00;;;21.20;52.95;100535.06;12257708;19;19923;-88
2023/07/01 01:25:43;;;;;;;;;;;22.00;52.60;;;21.18;52.68;100526.41;12255354;19;19926;-87
2023/07/01 01:29:45;;;;;;;;;;;22.00;52.50;;;21.09;52.83;100517.56;12253699;19;19919;-88
2023/07/01 01:33:48;;;;;;;;;;;22.00;52.60;;;21.12;52.72;100511.94;12253042;19;19925;-87
2023/07/01 01:37:52;;;;;;;;;;;22.00;52.60;;;21.13;52.66;100518.09;12256215;19;19907;-87
2023/07/01 01:42:02;;;;;;;;;;;22.00;52.50;;;20.93;52.63;100480.31;12254506;19;19939;-87
2023/07/01 01:46:05;;;;;;;;;;;22.00;52.50;;;21.05;52.86;100499.47;12253221;19;19923;-87
2023/07/01 01:50:09;;;;;;;;;;;21.90;52.50;;;21.06;52.70;100501.94;12251079;19;19953;-87
2023/07/01 01:54:11;;;;;;;;;;;21.90;52.50;;;20.98;53.25;100491.28;12251437;19;19922;-88
2023/07/01 01:58:14;;;;;;;;;;;21.80;52.50;;;21.05;53.05;100496.81;12254729;19;19926;-87
2023/07/01 02:02:15;;;;;;;;;;;21.80;52.50;;;20.93;52.89;100486.47;12253566;19;19931;-88
2023/07/01 02:06:17;;;;;;;;;;;21.80;52.50;;;20.73;52.91;100458.47;12254592;19;19925;-89
2023/07/01 02:10:19;;;;;;;;;;;21.80;52.50;;;20.91;53.21;100490.25;12252157;19;19942;-87
2023/07/01 02:14:21;;;;;;;;;;;21.70;52.50;;;20.77;52.75;100473.09;12252706;19;19949;-87
2023/07/01 02:18:24;;;;;;;;;;;21.70;52.50;;;20.40;52.89;100421.09;12256676;19;20034;-87
2023/07/01 02:22:25;;;;;;;;;;;21.70;52.60;;;20.80;53.01;100483.41;12251290;19;19923;-88
2023/07/01 02:26:27;;;;;;;;;;;21.60;52.60;;;20.76;53.34;100474.91;12253910;19;19911;-88
2023/07/01 02:30:28;;;;;;;;;;;21.60;52.70;;;20.56;53.15;100428.34;12251713;19;19978;-87
2023/07/01 02:34:30;;;;;;;;;;;21.60;52.80;;;20.80;53.28;100471.97;12250915;19;19923;-88
2023/07/01 02:38:32;;;;;;;;;;;21.60;52.80;;;20.49;52.81;100419.31;12254545;19;19915;-87
2023/07/01 02:42:34;;;;;;;;;;;21.60;53.20;;;20.65;53.09;100445.97;12249695;19;19938;-87
2023/07/01 02:46:35;;;;;;;;;;;21.60;52.70;;;20.76;53.38;100461.63;12253247;19;19923;-88
2023/07/01 02:50:37;;;;;;;;;;;21.60;52.80;;;20.66;53.07;100452.97;12249696;19;20341;-87
2023/07/01 02:54:39;;;;;;;;;;;21.50;52.80;;;20.75;53.44;100462.63;12248883;19;19934;-88
2023/07/01 02:58:41;;;;;;;;;;;21.50;52.80;;;20.49;53.29;100421.97;12250610;19;20330;-89
2023/07/01 03:02:43;;;;;;;;;;;21.50;52.80;;;20.66;53.32;100441.53;12249157;19;20246;-87
2023/07/01 03:06:44;;;;;;;;;;;21.50;52.90;;;20.64;53.17;100446.97;12249548;19;19982;-88
2023/07/01 03:10:46;;;;;;;;;;;21.60;52.90;;;20.68;53.12;100444.84;12247562;19;19923;-87
2023/07/01 03:14:48;;;;;;;;;;;21.50;52.80;;;20.66;53.20;100442.34;12247404;19;19918;-88
2023/07/01 03:18:49;;;;;;;;;;;21.50;52.90;;;20.69;53.22;100444.69;12254090;19;19911;-87
2023/07/01 03:22:52;;;;;;;;;;;21.50;52.90;;;20.54;53.51;100411.75;12251841;19;20596;-88
2023/07/01 03:26:54;;;;;;;;;;;21.50;52.90;;;20.65;53.46;100429.22;12255599;19;19926;-88
2023/07/01 03:30:56;;;;;;;;;;;21.50;52.90;;;20.48;53.22;100407.88;12251158;19;19929;-88
2023/07/01 03:34:57;;;;;;;;;;;21.40;52.80;;;20.52;53.55;100427.81;12254468;19;19947;-88
2023/07/01 03:39:00;;;;;;;;;;;21.40;52.90;;;20.46;53.31;100412.50;12254332;19;19922;-89
2023/07/01 03:43:02;;;;;;;;;;;21.40;52.90;;;20.33;53.17;100394.38;12259026;19;19923;-87
2023/07/01 03:47:04;;;;;;;;;;;21.40;52.90;;;20.46;53.61;100412.50;12250297;19;19915;-87
2023/07/01 03:51:06;;;;;;;;;;;21.30;52.90;;;20.43;53.56;100410.16;12246718;19;19938;-87
2023/07/01 03:55:11;;;;;;;;;;;21.30;52.90;;;20.32;53.48;100398.00;12249734;19;19920;-87
2023/07/01 03:59:13;;;;;;;;;;;21.30;52.90;;;20.30;53.24;100405.28;12248264;19;20042;-87
2023/07/01 04:03:14;;;;;;;;;;;21.30;53.00;;;20.42;53.37;100413.00;12248884;19;20333;-87
2023/07/01 04:07:21;;;;;;;;;;;21.30;53.10;;;20.37;53.61;100417.94;12249130;19;19943;-88
2023/07/01 04:11:23;;;;;;;;;;;21.30;53.10;;;20.46;53.82;100424.94;12245893;19;20360;-88
2023/07/01 04:15:25;;;;;;;;;;;21.30;53.20;;;20.51;53.63;100428.78;12244495;19;19944;-87
2023/07/01 04:19:26;;;;;;;;;;;21.30;53.30;;;20.27;53.86;100375.59;12243641;19;20341;-87
2023/07/01 04:23:28;;;;;;;;;;;21.30;53.30;;;20.40;53.53;100399.06;12245919;19;19919;-87
2023/07/01 04:27:30;;;;;;;;;;;21.30;53.30;;;20.47;53.82;100410.72;12245826;19;19919;-88
2023/07/01 04:31:32;;;;;;;;;;;21.30;53.30;;;20.49;53.60;100404.22;12247448;19;19942;-88
2023/07/01 04:35:34;;;;;;;;;;;21.40;53.40;;;20.54;53.68;100412.59;12246348;19;19920;-89
2023/07/01 04:39:36;;;;;;;;;;;21.40;53.60;;;20.60;53.86;100413.78;12247138;19;19929;-88
2023/07/01 04:43:37;;;;;;;;;;;21.40;53.60;;;20.56;53.98;100407.13;12243872;19;19926;-87
2023/07/01 04:47:39;;;;;;;;;;;21.50;53.80;;;20.55;54.10;100397.53;12257721;19;19935;-88
2023/07/01 04:51:41;;;;;;;;;;;21.50;53.80;;;20.69;53.78;100399.56;12256590;19;19925;-88
2023/07/01 04:55:43;;;;;;;;;;;21.60;53.80;;;20.70;54.09;100395.91;12259057;19;19915;-88
2023/07/01 04:59:44;;;;;;;;;;;21.60;53.80;;;20.60;53.86;100375.81;12258775;19;19915;-87
2023/07/01 05:03:47;;;;;;;;;;;21.60;53.90;;;20.73;53.89;100395.59;12254427;19;19926;-88
2023/07/01 05:07:48;;;;;;;;;;;21.70;54.00;;;20.73;53.86;100389.47;12255429;19;19915;-88
2023/07/01 05:11:50;;;;;;;;;;;21.70;53.70;;;20.65;54.10;100363.72;12253358;19;19931;-87
2023/07/01 05:15:51;;;;;;;;;;;21.70;53.90;;;20.70;53.95;100379.19;12255485;19;19918;-89
2023/07/01 05:19:53;;;;;;;;;;;21.70;53.70;;;20.87;54.14;100393.34;12258105;19;20266;-89
2023/07/01 05:23:54;;;;;;;;;;;21.80;53.80;;;20.89;54.26;100399.31;12253925;19;19926;-88
2023/07/01 05:27:56;;;;;;;;;;;21.80;53.70;;;20.93;53.77;100400.69;12255642;19;19915;-88
2023/07/01 05:31:58;;;;;;;;;;;21.80;54.00;;;20.97;53.82;100407.31;12254545;19;20313;-88
2023/07/01 05:36:00;;;;;;;;;;;21.80;53.70;;;20.99;53.98;100397.38;12255116;19;19975;-87
2023/07/01 05:40:01;;;;;;;;;;;21.90;53.70;;;20.96;53.92;100389.75;12254737;19;19918;-87
2023/07/01 05:44:03;;;;;;;;;;;21.90;53.80;;;21.03;54.34;100390.75;12250964;19;19974;-87
2023/07/01 05:48:06;;;;;;;;;;;21.90;53.70;;;21.05;54.32;100388.75;12255090;19;20366;-87
2023/07/01 05:52:07;;;;;;;;;;;22.00;53.90;;;20.83;54.00;100347.72;12254333;19;19958;-88
2023/07/01 05:56:09;;;;;;;;;;;22.00;53.80;;;21.12;54.23;100381.81;12252127;19;19945;-89
2023/07/01 06:00:13;;;;;;;;;;;22.00;53.90;;;21.21;54.20;100388.81;12253585;19;19947;-89
2023/07/01 06:04:15;;;;;;;;;;;22.10;53.90;;;21.27;54.14;100379.34;12247456;19;19926;-87
2023/07/01 06:08:16;;;;;;;;;;;22.20;54.40;;;21.46;54.43;100394.19;12256202;19;19926;-89
2023/07/01 06:12:18;;;;;;;;;;;22.30;54.10;;;21.31;54.24;100340.03;12251703;19;19923;-88
2023/07/01 06:16:20;;;;;;;;;;;22.40;54.10;;;21.52;54.32;100345.75;12254582;19;19982;-88
2023/07/01 06:20:21;;;;;;;;;;;22.60;54.10;;;21.84;54.52;100378.63;12254881;19;19923;-87
2023/07/01 06:24:23;;;;;;;;;;;22.80;53.90;;;22.02;54.34;100386.44;12249390;19;19939;-87
2023/07/01 06:28:25;;;;;;;;;;;22.90;53.80;;;22.15;54.58;100375.28;12253361;19;19914;-87
2023/07/01 06:32:26;;;;;;;;;;;23.00;53.60;;;22.12;54.56;100357.00;12253081;19;19919;-88
2023/07/01 06:36:28;;;;;;;;;;;23.20;53.70;;;22.36;54.83;100367.63;12247093;19;20596;-88
2023/07/01 06:40:29;;;;;;;;;;;23.40;53.50;;;22.59;54.63;100382.84;12254773;19;20353;-88
2023/07/01 06:44:31;;;;;;;;;;;23.60;53.50;;;22.51;54.51;100344.63;12247107;19;20651;-88
2023/07/01 06:48:32;;;;;;;;;;;23.70;53.30;;;22.80;54.74;100379.63;12249001;19;19936;-88
2023/07/01 06:52:34;;;;;;;;;;;23.80;53.10;;;22.84;54.35;100376.41;12250413;19;19925;-89
2023/07/01 06:56:36;;;;;;;;;;;23.90;52.90;;;22.94;54.24;100371.72;12252438;19;19931;-89
2023/07/01 07:00:39;;;;;;;;;;;24.00;52.70;;;23.04;54.43;100374.22;12251156;19;19933;-89
2023/07/01 07:04:41;;;;;;;;;;;24.10;52.70;;;22.95;54.18;100330.78;12248319;19;19922;-88
2023/07/01 07:08:42;;;;;;;;;;;24.20;52.60;;;23.28;54.42;100375.91;12247163;19;19919;-88
2023/07/01 07:12:44;;;;;;;;;;;24.30;52.30;;;23.35;54.27;100363.53;12249657;19;20344;-89
2023/07/01 07:16:46;;;;;;;;;;;24.40;52.10;;;23.37;54.57;100350.84;12251304;19;19923;-89
2023/07/01 07:20:48;;;;;;;;;;;24.50;52.10;;;23.60;54.46;100360.69;12250982;19;19923;-88
2023/07/01 07:24:50;;;;;;;;;;;24.60;52.00;;;23.70;54.53;100355.09;12246756;19;19948;-88
2023/07/01 07:28:51;;;;;;;;;;;24.70;51.80;;;23.67;54.26;100324.31;12249541;19;19929;-88
2023/07/01 07:32:53;;;;;;;;;;;24.80;51.80;;;23.82;54.38;100325.22;12247150;19;19919;-89
2023/07/01 07:36:55;;;;;;;;;;;25.00;51.90;;;24.02;53.95;100338.84;12248811;19;20345;-90
2023/07/01 07:40:56;;;;;;;;;;;25.10;51.50;;;24.15;54.13;100337.41;12246177;19;19929;-90
2023/07/01 07:44:57;;;;;;;;;;;25.20;51.10;;;24.03;54.23;100297.84;12248647;19;19919;-89
2023/07/01 07:48:59;;;;;;;;;;;25.30;50.80;;;24.41;54.29;100332.44;12245802;19;20336;-88
2023/07/01 07:53:03;;;;;;;;;;;25.50;51.20;;;24.47;53.85;100313.03;12246805;19;19923;-89
2023/07/01 07:57:05;;;;;;;;;;;25.60;50.90;;;24.67;53.73;100321.28;12247723;19;19915;-89
2023/07/01 08:01:06;;;;;;;;;;;25.70;50.80;;;24.65;53.89;100290.44;12242871;19;19982;-90
2023/07/01 08:05:08;;;;;;;;;;;25.90;50.60;;;24.85;54.04;100309.38;12246948;19;19982;-89
2023/07/01 08:09:10;;;;;;;;;;;26.00;50.30;;;25.03;53.77;100316.97;12245982;19;19986;-91
2023/07/01 08:13:12;;;;;;;;;;;26.10;50.30;;;25.11;53.50;100309.69;12250203;19;20284;-92
2023/07/01 08:17:14;;;;;;;;;;;26.20;49.30;;;25.11;53.71;100296.31;12247778;19;19922;-90
2023/07/01 08:21:16;;;;;;;;;;;26.40;49.80;;;25.09;53.44;100276.97;12250659;19;19930;-91
2023/07/01 08:25:19;;;;;;;;;;;26.40;49.70;;;25.35;53.06;100308.47;12247718;19;19925;-92
2023/07/01 08:29:20;;;;;;;;;;;26.50;49.40;;;25.23;53.22;100269.94;12243977;19;19970;-91
2023/07/01 08:33:26;;;;;;;;;;;26.60;48.80;;;25.56;53.25;100306.81;12246207;19;20269;-91
2023/07/01 08:37:28;;;;;;;;;;;26.70;48.30;;;25.59;52.80;100306.44;12247997;19;19919;-91
2023/07/01 08:41:32;;;;;;;;;;;26.80;48.80;;;25.62;53.07;100284.63;12249246;19;19914;-91
2023/07/01 08:45:33;;;;;;;;;;;26.80;48.30;;;25.76;52.90;100291.75;12244697;19;19922;-91
2023/07/01 08:49:37;;;;;;;;;;;26.90;48.00;;;25.87;52.94;100278.88;12246030;19;19943;-90
2023/07/01 08:53:40;;;;;;;;;;;27.00;48.60;;;25.76;52.91;100240.94;12244828;19;19919;-89
2023/07/01 08:57:41;;;;;;;;;;;27.10;48.50;;;26.08;52.42;100272.63;12245948;19;19915;-91
2023/07/01 09:01:43;;;;;;;;;;;27.20;46.90;;;26.14;52.60;100274.50;12246556;19;19919;-90
2023/07/01 09:05:45;;;;;;;;;;;27.20;48.20;;;26.29;52.32;100283.25;12245553;19;20564;-90
2023/07/01 09:09:47;;;;;;;;;;;27.30;48.40;;;26.35;52.33;100277.09;12243022;19;19950;-91
2023/07/01 09:13:54;;;;;;;;;;;27.40;48.30;;;26.38;52.04;100255.28;12240468;19;19923;-91
2023/07/01 09:17:56;;;;;;;;;;;27.50;47.30;;;26.54;52.14;100267.50;12245282;19;20265;-91
2023/07/01 09:22:08;;;;;;;;;;;27.60;48.40;;;26.60;51.77;100256.03;12241665;19;19922;-91
2023/07/01 09:26:15;;;;;;;;;;;27.70;48.10;;;26.61;51.85;100238.91;12244170;19;19939;-92
2023/07/01 09:30:26;;;;;;;;;;;27.80;48.30;;;26.82;51.75;100258.56;12243810;19;19911;-90
2023/07/01 09:34:48;;;;;;;;;;;27.80;47.30;;;26.89;51.71;100252.16;12251226;19;19915;-90
2023/07/01 09:38:51;;;;;;;;;;;28.00;46.30;;;26.99;51.44;100249.09;12253809;19;19911;-90
2023/07/01 09:42:54;;;;;;;;;;;28.00;47.40;;;27.02;51.52;100235.28;12254129;19;19982;-91
2023/07/01 09:46:56;;;;;;;;;;;28.10;47.70;;;27.12;51.46;100238.38;12256671;19;19919;-90
2023/07/01 09:51:04;;;;;;;;;;;28.20;47.70;;;27.21;51.43;100235.53;12252642;19;19914;-90
2023/07/01 09:55:06;;;;;;;;;;;28.30;47.50;;;27.03;51.10;100198.56;12256685;19;20317;-92
2023/07/01 09:59:08;;;;;;;;;;;28.30;47.90;;;27.18;50.76;100219.88;12254549;19;19927;-90
2023/07/01 10:03:10;;;;;;;;;;;28.30;47.20;;;27.25;51.02;100213.47;12252279;19;19915;-92
2023/07/01 10:07:11;;;;;;;;;;;28.30;47.30;;;27.31;51.13;100201.09;12255402;19;19998;-90
2023/07/01 10:11:21;;;;;;;;;;;28.40;47.20;;;27.36;50.51;100198.63;12252975;19;19934;-90
2023/07/01 10:15:25;;;;;;;;;;;28.40;46.90;;;27.41;50.55;100185.41;12251950;19;19915;-90
2023/07/01 10:19:34;;;;;;;;;;;28.50;47.10;;;27.56;50.70;100193.22;12253188;19;19939;-91
2023/07/01 10:24:00;;;;;;;;;;;28.60;46.90;;;27.62;50.21;100192.38;12249031;19;19918;-90
2023/07/01 10:28:02;;;;;;;;;;;28.60;46.40;;;27.65;50.24;100175.84;12253886;19;19917;-91
2023/07/01 10:32:09;;;;;;;;;;;28.70;46.80;;;27.83;50.27;100182.47;12251122;19;19915;-90
2023/07/01 10:36:17;;;;;;;;;;;28.80;47.20;;;27.85;50.17;100167.78;12252973;19;20256;-90
2023/07/01 10:40:28;;;;;;;;;;;28.90;46.60;;;27.95;50.01;100157.44;12247731;19;20363;-90
2023/07/01 10:44:30;;;;;;;;;;;28.90;46.10;;;27.87;50.15;100143.41;12247042;19;19923;-91
2023/07/01 10:48:31;;;;;;;;;;;28.90;44.60;;;27.83;50.16;100134.97;12248645;19;19922;-91
2023/07/01 10:52:54;;;;;;;;;;;28.90;44.60;;;27.86;49.55;100145.28;12249232;19;19919;-90
2023/07/01 10:57:24;;;;;;;;;;;29.00;46.00;;;28.05;49.23;100138.19;12250176;19;19926;-90
2023/07/01 11:01:47;;;;;;;;;;;29.00;44.60;;;28.13;49.49;100140.63;12249650;19;20298;-90
2023/07/01 11:06:08;;;;;;;;;;;29.10;46.20;;;28.17;49.23;100131.09;12249690;19;19922;-90
2023/07/01 11:10:10;;;;;;;;;;;29.10;46.20;;;28.26;49.45;100117.44;12249714;19;19923;-90
2023/07/01 11:14:11;;;;;;;;;;;29.30;45.50;;;28.30;49.23;100099.81;12246779;19;20571;-90
2023/07/01 11:18:13;;;;;;;;;;;29.30;44.20;;;28.33;49.33;100107.47;12249882;19;19979;-91
2023/07/01 11:22:14;;;;;;;;;;;29.40;45.40;;;28.43;48.57;100119.41;12248187;19;19923;-91
2023/07/01 11:26:25;;;;;;;;;;;29.30;43.80;;;28.17;48.75;100074.72;12251349;19;19923;-91
2023/07/01 11:30:28;;;;;;;;;;;29.40;44.60;;;28.42;48.77;100106.16;12245737;19;19922;-91
2023/07/01 11:34:30;;;;;;;;;;;29.40;43.90;;;28.42;48.71;100090.03;12246001;19;19918;-90
2023/07/01 11:38:33;;;;;;;;;;;29.40;43.20;;;28.42;48.04;100082.00;12246775;19;19915;-89
2023/07/01 11:42:35;;;;;;;;;;;29.40;42.80;;;28.48;48.30;100086.50;12250537;19;19911;-91
2023/07/01 11:46:41;;;;;;;;;;;29.40;44.80;;;28.51;48.22;100071.81;12247962;19;19926;-90
2023/07/01 11:50:53;;;;;;;;;;;29.40;45.70;;;28.62;48.37;100081.84;12250932;19;19907;-90
2023/07/01 11:54:54;;;;;;;;;;;29.50;45.30;;;28.46;48.13;100053.66;12255046;19;19926;-90
2023/07/01 11:58:56;;;;;;;;;;;29.60;45.40;;;28.60;48.33;100073.22;12255510;19;19923;-90
2023/07/01 12:02:58;;;;;;;;;;;29.50;45.00;;;28.56;47.97;100072.81;12252253;19;20337;-91
2023/07/01 12:07:09;;;;;;;;;;;29.50;43.60;;;28.51;47.57;100053.84;12246869;19;19952;-93
2023/07/01 12:11:17;;;;;;;;;;;29.50;43.60;;;28.63;47.65;100064.72;12242916;19;19914;-91
2023/07/01 12:15:19;;;;;;;;;;;29.50;44.70;;;28.74;47.63;100068.56;12244063;19;20265;-92
2023/07/01 12:19:21;;;;;;;;;;;29.50;41.30;;;28.73;47.60;100058.81;12245211;19;19978;-90
2023/07/01 12:23:23;;;;;;;;;;;29.60;44.40;;;28.78;47.62;100050.94;12242639;19;19926;-91
2023/07/01 12:27:24;;;;;;;;;;;29.60;44.20;;;28.79;47.30;100050.72;12246074;19;20252;-90
2023/07/01 12:31:26;;;;;;;;;;;29.70;44.40;;;28.79;47.75;100034.59;12243289;19;19919;-90
2023/07/01 12:35:27;;;;;;;;;;;29.70;43.90;;;28.85;47.45;100043.63;12243747;19;19923;-92
2023/07/01 12:39:31;;;;;;;;;;;29.80;43.80;;;28.73;46.89;100022.03;12245930;19;20299;-92
2023/07/01 12:43:32;;;;;;;;;;;29.80;44.00;;;28.87;47.11;100037.00;12247683;19;19907;-93
2023/07/01 12:47:34;;;;;;;;;;;29.80;43.90;;;28.96;46.95;100034.03;12255965;19;19915;-93
2023/07/01 12:51:37;;;;;;;;;;;29.80;44.20;;;28.94;47.02;100031.53;12249036;19;19907;-93
2023/07/01 12:55:38;;;;;;;;;;;29.80;42.80;;;28.82;46.79;100003.75;12243162;19;20345;-92
2023/07/01 12:59:43;;;;;;;;;;;29.90;43.70;;;29.00;46.80;100025.28;12246492;19;19941;-93
2023/07/01 13:03:45;;;;;;;;;;;29.80;43.50;;;28.78;46.51;99975.69;12240491;19;19950;-93
2023/07/01 13:07:50;;;;;;;;;;;29.80;43.50;;;28.83;46.44;99983.91;12261834;19;19925;-94
2023/07/01 13:11:51;;;;;;;;;;;29.80;42.90;;;28.66;46.39;99964.84;12259162;19;20307;-93
2023/07/01 13:15:53;;;;;;;;;;;29.80;42.20;;;28.95;46.11;100014.38;12268981;19;20329;-93
2023/07/01 13:19:55;;;;;;;;;;;29.70;41.50;;;28.72;46.28;99971.19;12264720;19;19922;-93
2023/07/01 13:23:56;;;;;;;;;;;29.80;43.50;;;28.93;46.25;100003.03;12262251;19;19918;-93
2023/07/01 13:28:03;;;;;;;;;;;29.80;43.30;;;28.97;45.88;100014.16;12260107;19;20253;-93
2023/07/01 13:32:05;;;;;;;;;;;29.80;43.90;;;28.84;45.97;99996.28;12263360;19;19919;-92
2023/07/01 13:36:09;;;;;;;;;;;29.80;43.20;;;28.79;45.88;99990.78;12258094;19;20557;-93
2023/07/01 13:40:11;;;;;;;;;;;29.70;43.50;;;28.61;45.94;99964.69;12262146;19;20328;-93
2023/07/01 13:44:22;;;;;;;;;;;29.70;43.50;;;28.85;45.62;99996.06;12256899;19;19954;-93
2023/07/01 13:48:38;;;;;;;;;;;29.60;42.00;;;28.78;45.77;99989.13;12259628;19;19911;-93
2023/07/01 13:52:40;;;;;;;;;;;29.60;42.80;;;28.83;45.65;99990.09;12252738;19;19927;-93
2023/07/01 13:56:42;;;;;;;;;;;29.60;42.10;;;28.84;45.54;99996.28;12256856;19;19915;-92
2023/07/01 14:00:48;;;;;;;;;;;29.60;42.80;;;28.75;45.67;99973.44;12254478;19;19989;-93
2023/07/01 14:04:49;;;;;;;;;;;29.50;43.10;;;28.82;45.36;99980.41;12247302;19;19922;-92
2023/07/01 14:08:51;;;;;;;;;;;29.60;43.40;;;28.74;45.52;99963.75;12250618;19;19919;-91
2023/07/01 14:12:56;;;;;;;;;;;29.50;43.70;;;28.80;45.52;99984.34;12254775;19;19915;-92
2023/07/01 14:17:00;;;;;;;;;;;29.50;43.00;;;28.68;45.39;99970.84;12252813;19;19927;-92
2023/07/01 14:21:04;;;;;;;;;;;29.50;43.90;;;28.57;45.39;99947.34;12252939;19;20383;-92
2023/07/01 14:25:06;;;;;;;;;;;29.50;43.70;;;28.59;45.23;99956.84;12252129;19;20246;-92
2023/07/01 14:29:13;;;;;;;;;;;29.50;43.60;;;28.71;45.29;99967.69;12252176;19;20271;-92
2023/07/01 14:33:14;;;;;;;;;;;29.40;41.90;;;28.58;45.19;99944.47;12249916;19;19919;-92
2023/07/01 14:37:16;;;;;;;;;;;29.40;42.70;;;28.53;45.02;99940.78;12253750;19;19927;-91
2023/07/01 14:41:24;;;;;;;;;;;29.30;43.00;;;28.61;44.96;99957.44;12253008;19;19923;-92
2023/07/01 14:45:27;;;;;;;;;;;29.30;43.10;;;28.23;45.04;99893.94;12251696;19;19974;-92
2023/07/01 14:49:29;;;;;;;;;;;29.30;43.40;;;28.39;44.75;99919.41;12250208;19;19919;-92
2023/07/01 14:53:31;;;;;;;;;;;29.30;43.20;;;28.40;44.54;99923.72;12248449;19;20364;-92
2023/07/01 14:57:32;;;;;;;;;;;29.30;43.10;;;28.35;44.88;99920.06;12252894;19;19915;-92
2023/07/01 15:01:34;;;;;;;;;;;29.20;43.00;;;28.34;44.87;99921.94;12248497;19;20256;-91
2023/07/01 15:05:37;;;;;;;;;;;29.10;43.00;;;28.41;45.13;99948.75;12252348;19;19915;-91
2023/07/01 15:09:39;;;;;;;;;;;29.10;43.10;;;28.22;44.65;99918.34;12248816;19;19923;-92
2023/07/01 15:13:40;;;;;;;;;;;29.10;43.00;;;28.31;44.76;99935.00;12247212;19;20286;-92
2023/07/01 15:17:42;;;;;;;;;;;29.10;42.70;;;28.20;44.48;99920.41;12253270;19;19930;-89
2023/07/01 15:21:44;;;;;;;;;;;29.00;42.90;;;28.34;44.88;99934.53;12250335;19;19906;-89
2023/07/01 15:25:45;;;;;;;;;;;29.00;42.80;;;28.18;44.58;99919.81;12250231;19;19942;-91
2023/07/01 15:29:47;;;;;;;;;;;29.00;42.50;;;28.14;44.73;99918.59;12248232;19;19918;-90
2023/07/01 15:33:49;;;;;;;;;;;28.90;42.70;;;28.18;44.49;99944.78;12248830;19;19946;-90
2023/07/01 15:37:51;;;;;;;;;;;28.90;42.80;;;28.06;44.45;99945.72;12249777;19;19918;-90
2023/07/01 15:41:52;;;;;;;;;;;28.80;42.80;;;28.06;44.37;99962.66;12247878;19;19911;-90
2023/07/01 15:45:54;;;;;;;;;;;28.70;41.80;;;27.77;44.34;99934.53;12250601;19;19934;-89
2023/07/01 15:49:56;;;;;;;;;;;28.70;42.50;;;27.80;44.31;99943.00;12247844;19;20640;-89
2023/07/01 15:53:57;;;;;;;;;;;28.60;42.30;;;27.81;44.29;99954.56;12247445;19;19906;-90
2023/07/01 15:57:59;;;;;;;;;;;28.50;42.60;;;27.69;44.19;99961.63;12250445;19;19919;-89
2023/07/01 16:02:02;;;;;;;;;;;28.40;42.50;;;27.54;44.31;99949.34;12249413;19;19923;-89
2023/07/01 16:06:03;;;;;;;;;;;28.30;42.20;;;27.47;44.30;99956.59;12246624;19;19914;-89
2023/07/01 16:10:06;;;;;;;;;;;28.10;42.50;;;27.40;44.10;99958.47;12248510;19;19915;-89
2023/07/01 16:14:08;;;;;;;;;;;28.10;42.50;;;27.38;44.35;99949.81;12245160;19;19996;-89
2023/07/01 16:18:40;;;;;;;;;;;28.00;42.60;;;27.31;44.07;99943.69;12246167;19;20613;-89
2023/07/01 16:22:42;;;;;;;;;;;28.00;42.10;;;27.23;43.93;99925.97;12246060;19;19941;-89
2023/07/01 16:26:44;;;;;;;;;;;27.90;42.60;;;27.28;44.09;99947.63;12245993;19;19978;-89
2023/07/01 16:30:46;;;;;;;;;;;27.90;42.70;;;27.09;44.00;99917.16;12238379;19;20377;-90
2023/07/01 16:34:47;;;;;;;;;;;27.90;42.30;;;27.29;44.00;99943.06;12241772;19;20329;-89
2023/07/01 16:38:50;;;;;;;;;;;27.90;42.80;;;27.10;44.20;99915.28;12247436;19;19925;-89
2023/07/01 16:42:52;;;;;;;;;;;27.80;42.90;;;27.10;43.59;99915.28;12243375;19;19918;-90
2023/07/01 16:46:54;;;;;;;;;;;27.90;42.80;;;27.25;43.87;99937.31;12245945;19;20318;-89
2023/07/01 16:50:58;;;;;;;;;;;27.90;42.80;;;27.26;44.12;99938.94;12242374;19;19922;-88
2023/07/01 16:54:59;;;;;;;;;;;27.90;42.80;;;27.18;43.57;99917.75;12246003;19;20015;-88
2023/07/01 16:59:01;;;;;;;;;;;27.90;42.70;;;27.23;43.84;99936.69;12248334;19;20340;-88
2023/07/01 17:03:15;;;;;;;;;;;27.90;42.90;;;27.19;43.89;99927.41;12246879;19;19918;-88
2023/07/01 17:07:19;;;;;;;;;;;27.90;42.90;;;27.27;43.56;99939.78;12246215;19;19911;-89
2023/07/01 17:11:46;;;;;;;;;;;27.80;42.80;;;27.23;43.73;99938.56;12241299;19;19952;-88
2023/07/01 17:15:51;;;;;;;;;;;27.80;42.90;;;27.19;43.85;99940.81;12244119;19;19927;-88
2023/07/01 17:20:04;;;;;;;;;;;27.80;42.80;;;27.07;44.15;99927.25;12251678;19;19927;-88
2023/07/01 17:24:05;;;;;;;;;;;27.80;42.70;;;27.09;43.94;99938.59;12251799;19;19937;-89
2023/07/01 17:28:07;;;;;;;;;;;27.70;42.70;;;27.05;43.45;99947.25;12258127;19;19987;-90
2023/07/01 17:32:08;;;;;;;;;;;27.70;42.70;;;26.89;43.96;99940.50;12262987;19;19935;-89
2023/07/01 17:36:10;;;;;;;;;;;27.70;42.80;;;26.95;43.78;99952.22;12243739;19;19919;-88
2023/07/01 17:40:13;;;;;;;;;;;27.60;42.90;;;26.85;43.71;99966.91;12245661;19;20106;-89
2023/07/01 17:44:16;;;;;;;;;;;27.50;43.00;;;26.72;43.95;99952.72;12245321;19;19970;-87
2023/07/01 17:48:18;;;;;;;;;;;27.40;43.00;;;26.59;43.72;99950.88;12252486;19;19939;-88
2023/07/01 17:52:19;;;;;;;;;;;27.40;43.00;;;26.41;44.07;99964.84;12254218;19;19926;-88
2023/07/01 17:56:21;;;;;;;;;;;27.20;42.70;;;26.18;43.78;99959.94;12265079;19;19934;-88
2023/07/01 18:00:23;;;;;;;;;;;27.10;43.20;;;26.09;44.13;99994.13;12265990;19;19921;-88
2023/07/01 18:04:27;;;;;;;;;;;26.90;43.30;;;25.97;44.26;100007.25;12253987;19;19982;-87
2023/07/01 18:08:29;;;;;;;;;;;26.70;43.60;;;25.76;43.91;100004.69;12259765;19;19919;-87
2023/07/01 18:12:30;;;;;;;;;;;26.50;43.80;;;25.66;44.00;99996.25;12255998;19;20664;-86
2023/07/01 18:16:32;;;;;;;;;;;26.30;44.00;;;25.60;44.07;99998.72;12261129;19;20274;-87
2023/07/01 18:20:34;;;;;;;;;;;26.20;44.10;;;25.50;43.89;99994.75;12255481;19;19954;-87